Time;durP1;ratioP1;P1;durP2;ratioP2;P2;SDS_P1;SDS_P2;PMS_P1;PMS_P2;Temp;Humidity;BMP_temperature;BMP_pressure;BME280_temperature;BME280_humidity;BME280_pressure;Samples;Min_cycle;Max_cycle;Signal;HPM_P1;HPM_P2
2022/05/30 00:01:37;;;;;;;6.80;1.48;;;12.00;95.90;;;;;;4976694;28;92602;-72
2022/05/30 00:04:04;;;;;;;7.13;1.88;;;12.00;96.10;;;;;;4958162;28;95546;-73
2022/05/30 00:06:31;;;;;;;3.90;1.45;;;12.00;96.40;;;;;;4976532;28;95292;-73
2022/05/30 00:08:58;;;;;;;4.32;1.70;;;11.90;96.50;;;;;;4977009;28;92377;-74
2022/05/30 00:11:27;;;;;;;6.03;1.30;;;11.80;96.30;;;;;;4976484;28;92575;-72
2022/05/30 00:13:55;;;;;;;3.85;1.20;;;11.80;96.40;;;;;;4976521;28;93259;-72
2022/05/30 00:16:23;;;;;;;7.15;1.95;;;11.70;96.60;;;;;;4958879;28;95406;-73
2022/05/30 00:18:51;;;;;;;6.10;1.48;;;11.70;96.60;;;;;;4976688;28;92416;-73
2022/05/30 00:21:20;;;;;;;3.95;1.33;;;11.60;96.70;;;;;;4976984;28;91708;-72
2022/05/30 00:23:49;;;;;;;5.85;1.85;;;11.60;96.80;;;;;;4976281;28;96662;-73
2022/05/30 00:26:16;;;;;;;2.47;1.27;;;11.50;96.90;;;;;;4976241;28;92937;-73
2022/05/30 00:28:43;;;;;;;3.95;1.40;;;11.40;96.90;;;;;;4957960;28;94893;-72
2022/05/30 00:31:12;;;;;;;6.50;1.70;;;11.40;97.10;;;;;;4942398;28;92536;-73
2022/05/30 00:33:41;;;;;;;7.45;2.15;;;11.40;97.20;;;;;;4958411;28;95842;-73
2022/05/30 00:36:09;;;;;;;4.20;1.55;;;11.30;97.30;;;;;;4958212;28;109058;-73
2022/05/30 00:38:36;;;;;;;5.38;1.98;;;11.30;97.40;;;;;;4974839;28;92402;-72
2022/05/30 00:41:03;;;;;;;7.18;1.55;;;11.20;97.40;;;;;;4976366;28;92459;-73
2022/05/30 00:43:33;;;;;;;4.72;1.75;;;11.20;97.50;;;;;;4958553;28;95930;-72
2022/05/30 00:46:03;;;;;;;5.70;1.90;;;11.10;97.50;;;;;;4958694;28;95712;-73
2022/05/30 00:48:33;;;;;;;4.97;1.77;;;11.10;97.60;;;;;;4975072;28;92585;-72
2022/05/30 00:51:06;;;;;;;5.32;1.52;;;11.00;97.70;;;;;;4958469;28;92949;-73
2022/05/30 00:53:34;;;;;;;10.30;1.63;;;10.90;97.70;;;;;;4974647;28;95708;-73
2022/05/30 00:56:04;;;;;;;5.25;1.95;;;10.90;97.80;;;;;;4957521;28;98095;-73
2022/05/30 00:58:35;;;;;;;3.70;1.50;;;10.80;97.90;;;;;;4975974;28;92420;-73
2022/05/30 01:01:04;;;;;;;3.83;1.38;;;10.80;98.10;;;;;;4974759;28;92413;-72
2022/05/30 01:06:32;;;;;;;3.20;1.52;;;10.70;98.20;;;;;;4958326;28;95425;-72
2022/05/30 01:09:22;;;;;;;2.67;1.30;;;10.60;98.30;;;;;;4960726;28;92395;-73
2022/05/30 01:12:01;;;;;;;4.53;2.00;;;10.60;98.30;;;;;;4958289;28;91821;-73
2022/05/30 01:14:35;;;;;;;6.90;2.08;;;10.50;98.40;;;;;;4957753;28;95749;-73
2022/05/30 01:17:11;;;;;;;7.07;1.75;;;10.50;98.60;;;;;;4957857;28;95544;-73
2022/05/30 01:19:48;;;;;;;6.53;1.48;;;10.40;98.60;;;;;;4957226;28;94922;-73
2022/05/30 01:22:24;;;;;;;5.03;1.75;;;10.40;98.70;;;;;;4958192;28;92621;-73
2022/05/30 01:24:59;;;;;;;4.68;1.45;;;10.30;98.70;;;;;;4957940;28;95527;-73
2022/05/30 01:27:54;;;;;;;4.88;1.42;;;10.30;98.90;;;;;;4961487;28;94197;-74
2022/05/30 01:30:22;;;;;;;5.55;1.52;;;10.20;99.00;;;;;;4958192;28;92524;-73
2022/05/30 01:32:49;;;;;;;4.57;1.75;;;10.20;99.00;;;;;;4957781;28;92824;-73
2022/05/30 01:35:24;;;;;;;5.40;1.52;;;10.20;99.00;;;;;;4957666;28;96262;-73
2022/05/30 01:37:52;;;;;;;5.45;1.98;;;10.20;99.10;;;;;;4957923;28;95449;-73
2022/05/30 01:40:21;;;;;;;7.22;1.45;;;10.10;99.10;;;;;;4958154;28;92984;-73
2022/05/30 01:42:48;;;;;;;5.32;1.75;;;10.10;99.10;;;;;;4957637;28;92569;-73
2022/05/30 01:45:15;;;;;;;3.03;1.58;;;10.00;99.20;;;;;;4956402;28;97818;-73
2022/05/30 01:47:42;;;;;;;3.90;1.63;;;10.00;99.30;;;;;;4957202;28;97981;-73
2022/05/30 01:50:09;;;;;;;5.90;1.48;;;9.90;99.50;;;;;;4974180;28;93116;-73
2022/05/30 01:52:39;;;;;;;4.53;1.35;;;9.90;99.60;;;;;;4957427;28;92678;-73
2022/05/30 01:55:06;;;;;;;4.07;1.60;;;9.90;99.70;;;;;;4941303;28;95816;-73
2022/05/30 01:57:45;;;;;;;7.47;2.05;;;9.90;99.80;;;;;;4958592;28;94189;-73
2022/05/30 02:00:36;;;;;;;6.75;2.08;;;9.90;99.90;;;;;;4973459;28;92449;-73
2022/05/30 02:03:04;;;;;;;5.18;1.35;;;9.90;99.90;;;;;;4958281;28;91781;-73
2022/05/30 02:05:33;;;;;;;4.85;1.92;;;9.90;99.90;;;;;;4941125;28;95924;-73
2022/05/30 02:08:01;;;;;;;3.72;1.50;;;10.00;99.90;;;;;;4960858;28;95571;-73
2022/05/30 02:10:31;;;;;;;4.28;1.42;;;10.00;99.90;;;;;;4943276;28;95047;-73
2022/05/30 02:13:02;;;;;;;3.38;1.38;;;10.00;99.90;;;;;;4960879;28;92971;-73
2022/05/30 02:18:49;;;;;;;4.75;1.25;;;10.00;99.90;;;;;;4960510;28;95309;-73
2022/05/30 02:21:17;;;;;;;7.78;1.65;;;10.10;99.90;;;;;;4944698;28;92483;-73
2022/05/30 02:23:44;;;;;;;4.80;1.63;;;10.10;99.90;;;;;;4960607;28;92448;-73
2022/05/30 02:26:11;;;;;;;11.00;2.10;;;10.10;99.90;;;;;;4960687;28;95843;-73
2022/05/30 02:28:38;;;;;;;4.00;1.75;;;10.20;99.90;;;;;;4960943;28;95273;-73
2022/05/30 02:31:05;;;;;;;4.70;1.90;;;10.20;99.90;;;;;;4960387;28;92500;-73
2022/05/30 02:36:39;;;;;;;4.82;1.92;;;10.30;99.90;;;;;;4945571;28;98083;-73
2022/05/30 02:39:11;;;;;;;4.20;1.75;;;10.30;99.90;;;;;;4960087;28;97743;-73
2022/05/30 02:41:56;;;;;;;6.50;2.10;;;10.30;99.90;;;;;;4978440;28;92481;-73
2022/05/30 02:44:25;;;;;;;5.10;2.10;;;10.30;99.90;;;;;;4978215;28;92408;-73
2022/05/30 02:46:55;;;;;;;2.70;1.52;;;10.40;99.90;;;;;;4977890;28;93029;-73
2022/05/30 02:49:22;;;;;;;6.97;1.65;;;10.40;99.90;;;;;;4960190;28;95165;-73
2022/05/30 02:51:49;;;;;;;4.20;1.90;;;10.40;99.90;;;;;;4960255;28;92375;-73
2022/05/30 02:54:17;;;;;;;4.75;1.73;;;10.50;99.90;;;;;;4960260;28;91943;-73
2022/05/30 02:57:05;;;;;;;6.63;2.08;;;10.50;99.90;;;;;;4969267;28;94322;-72
2022/05/30 02:59:33;;;;;;;6.82;1.88;;;10.40;99.90;;;;;;4960183;28;95240;-72
2022/05/30 03:02:04;;;;;;;3.22;1.55;;;10.50;99.90;;;;;;4959059;28;94952;-73
2022/05/30 03:04:32;;;;;;;6.15;1.80;;;10.40;99.90;;;;;;4960205;28;92893;-72
2022/05/30 03:07:03;;;;;;;4.30;1.77;;;10.50;99.90;;;;;;4976144;28;95294;-72
2022/05/30 03:09:31;;;;;;;3.67;2.05;;;10.40;99.80;;;;;;4959905;28;95061;-72
2022/05/30 03:12:15;;;;;;;6.15;2.00;;;10.40;99.90;;;;;;4960125;28;92497;-72
2022/05/30 03:14:42;;;;;;;4.43;2.08;;;10.40;99.90;;;;;;4959916;28;92566;-72
2022/05/30 03:17:10;;;;;;;4.15;2.20;;;10.30;99.90;;;;;;4958696;28;95644;-72
2022/05/30 03:19:40;;;;;;;7.05;1.98;;;10.20;99.90;;;;;;4976232;28;95199;-72
2022/05/30 03:22:07;;;;;;;6.35;2.00;;;10.20;99.90;;;;;;4943607;28;92956;-72
2022/05/30 03:25:03;;;;;;;6.72;2.10;;;10.20;99.90;;;;;;4977153;28;92870;-72
2022/05/30 03:27:30;;;;;;;4.72;2.05;;;10.10;99.90;;;;;;4958421;28;98228;-72
2022/05/30 03:29:57;;;;;;;6.25;2.10;;;10.10;99.90;;;;;;4959291;28;97774;-72
2022/05/30 03:32:24;;;;;;;5.32;1.90;;;10.10;99.90;;;;;;4959665;28;92465;-72
2022/05/30 03:34:51;;;;;;;4.53;2.10;;;10.10;99.90;;;;;;4960102;28;92993;-72
2022/05/30 03:37:18;;;;;;;6.50;1.85;;;10.10;99.90;;;;;;4959516;28;95858;-72
2022/05/30 03:40:05;;;;;;;8.40;1.92;;;10.00;99.90;;;;;;4959453;28;94092;-72
2022/05/30 03:42:51;;;;;;;6.82;1.80;;;10.00;99.90;;;;;;4974347;28;92468;-72
2022/05/30 03:45:22;;;;;;;7.35;2.50;;;10.00;99.90;;;;;;4960053;28;91820;-72
2022/05/30 03:47:49;;;;;;;4.03;1.85;;;10.00;99.90;;;;;;4959535;28;95725;-72
2022/05/30 03:50:24;;;;;;;7.85;2.47;;;10.00;99.90;;;;;;4959562;28;93035;-72
2022/05/30 03:52:56;;;;;;;6.10;2.28;;;10.00;99.90;;;;;;4958092;28;94950;-72
2022/05/30 03:55:24;;;;;;;3.35;2.17;;;9.90;99.90;;;;;;4959597;28;92449;-73
2022/05/30 03:57:51;;;;;;;3.55;1.63;;;10.00;99.90;;;;;;4955686;28;95875;-72
2022/05/30 04:00:21;;;;;;;5.15;2.00;;;10.00;99.90;;;;;;4955834;28;94086;-72
2022/05/30 04:02:53;;;;;;;6.95;2.58;;;10.00;99.90;;;;;;4956266;28;92570;-72
2022/05/30 04:05:21;;;;;;;7.20;2.67;;;10.00;99.90;;;;;;4956325;28;93123;-72
2022/05/30 04:07:48;;;;;;;5.95;2.35;;;10.00;99.90;;;;;;4955921;28;95392;-73
2022/05/30 04:10:35;;;;;;;4.45;1.90;;;10.10;99.90;;;;;;4957235;28;93699;-72
2022/05/30 04:13:21;;;;;;;6.88;2.25;;;10.10;99.90;;;;;;4955672;28;92389;-72
2022/05/30 04:16:09;;;;;;;4.15;2.00;;;10.10;99.90;;;;;;4956870;28;92471;-72
2022/05/30 04:18:36;;;;;;;3.63;2.28;;;10.10;99.90;;;;;;4955743;28;95411;-72
2022/05/30 04:21:10;;;;;;;2.78;1.90;;;10.20;99.90;;;;;;4955873;28;96498;-72
2022/05/30 04:23:42;;;;;;;7.18;2.20;;;10.30;99.90;;;;;;4956109;28;92438;-72
2022/05/30 04:26:15;;;;;;;4.50;1.90;;;10.30;99.80;;;;;;4940310;28;92911;-72
2022/05/30 04:28:46;;;;;;;3.88;1.92;;;10.30;99.70;;;;;;4956004;28;95205;-73
2022/05/30 04:31:32;;;;;;;2.72;2.30;;;10.40;99.70;;;;;;4955975;28;92460;-73
2022/05/30 04:34:00;;;;;;;4.28;2.40;;;10.40;99.60;;;;;;4955828;28;92674;-72
2022/05/30 04:36:27;;;;;;;4.00;2.20;;;10.40;99.50;;;;;;4955995;28;91734;-72
2022/05/30 04:38:55;;;;;;;3.05;2.10;;;10.50;99.60;;;;;;4939493;28;95663;-72
2022/05/30 04:41:51;;;;;;;6.07;2.45;;;10.50;99.60;;;;;;4955423;28;92937;-72
2022/05/30 04:44:37;;;;;;;4.50;2.08;;;10.50;99.40;;;;;;4955430;28;94761;-72
2022/05/30 04:47:23;;;;;;;7.70;3.25;;;10.60;99.40;;;;;;4953656;28;92459;-72
2022/05/30 04:49:50;;;;;;;5.10;2.38;;;10.70;99.30;;;;;;4955322;28;95663;-72
2022/05/30 04:52:19;;;;;;;4.65;2.00;;;10.70;99.20;;;;;;4955302;28;94137;-72
2022/05/30 04:54:47;;;;;;;6.80;2.47;;;10.80;99.20;;;;;;4955653;28;92406;-72
2022/05/30 04:57:26;;;;;;;3.15;2.17;;;10.80;99.10;;;;;;4954757;28;92496;-72
2022/05/30 05:00:16;;;;;;;2.30;2.10;;;10.90;98.90;;;;;;4941512;28;95628;-72
2022/05/30 05:02:44;;;;;;;3.20;2.20;;;11.00;99.20;;;;;;4971503;28;95435;-72
2022/05/30 05:05:13;;;;;;;4.05;2.35;;;11.10;98.90;;;;;;4954935;28;92478;-73
2022/05/30 05:08:06;;;;;;;5.47;2.65;;;11.10;99.10;;;;;;4954939;28;92547;-72
2022/05/30 05:11:12;;;;;;;8.27;3.20;;;11.30;99.10;;;;;;4954627;28;96549;-72
2022/05/30 05:13:57;;;;;;;4.43;2.80;;;11.30;99.10;;;;;;4954952;28;94810;-73
2022/05/30 05:16:56;;;;;;;5.03;2.72;;;11.30;99.10;;;;;;4933336;28;92519;-73
2022/05/30 05:19:24;;;;;;;3.65;2.80;;;11.30;99.20;;;;;;4954857;28;92887;-73
2022/05/30 05:21:51;;;;;;;5.32;2.75;;;11.40;99.20;;;;;;4954791;28;95132;-73
2022/05/30 05:24:19;;;;;;;3.45;2.65;;;11.40;99.10;;;;;;4954414;28;95378;-73
2022/05/30 05:27:05;;;;;;;4.57;2.33;;;11.40;99.20;;;;;;4954394;28;92486;-73
2022/05/30 05:29:32;;;;;;;6.20;2.28;;;11.40;99.20;;;;;;4955342;28;91779;-73
2022/05/30 05:32:01;;;;;;;4.93;2.20;;;11.50;99.20;;;;;;4954732;28;95504;-73
2022/05/30 05:34:28;;;;;;;3.63;2.20;;;11.50;99.10;;;;;;4954448;28;95530;-73
2022/05/30 05:36:56;;;;;;;4.22;1.92;;;11.60;99.10;;;;;;4953541;28;94881;-73
2022/05/30 05:39:25;;;;;;;3.92;2.45;;;11.60;99.10;;;;;;4954568;28;92581;-73
2022/05/30 05:41:54;;;;;;;4.53;2.30;;;11.60;99.10;;;;;;4956751;28;95630;-73
2022/05/30 05:44:21;;;;;;;4.60;2.42;;;11.70;99.10;;;;;;4957899;28;94931;-73
2022/05/30 05:46:49;;;;;;;4.75;2.25;;;11.80;99.10;;;;;;4942029;28;92542;-73
2022/05/30 05:49:17;;;;;;;4.10;2.45;;;11.90;98.90;;;;;;4957956;28;92566;-73
2022/05/30 05:51:44;;;;;;;7.20;2.30;;;12.10;98.80;;;;;;4957908;28;95827;-73
2022/05/30 05:54:13;;;;;;;7.32;2.58;;;12.20;98.70;;;;;;4958026;28;95312;-73
2022/05/30 05:56:39;;;;;;;3.22;2.03;;;12.40;98.40;;;;;;4959318;28;92920;-73
2022/05/30 05:59:13;;;;;;;2.40;2.03;;;12.50;98.10;;;;;;4962090;28;92487;-73
2022/05/30 06:01:40;;;;;;;4.72;2.22;;;12.70;97.90;;;;;;4927517;28;98567;-73
2022/05/30 06:04:09;;;;;;;4.53;2.17;;;12.90;97.60;;;;;;4978641;28;95328;-72
2022/05/30 06:06:42;;;;;;;5.45;2.40;;;13.10;97.20;;;;;;4976740;28;92409;-73
2022/05/30 06:09:19;;;;;;;3.38;1.75;;;13.30;96.90;;;;;;4960925;28;92569;-73
2022/05/30 06:11:53;;;;;;;3.38;2.35;;;13.50;96.60;;;;;;4977169;28;94737;-73
2022/05/30 06:14:22;;;;;;;4.32;1.73;;;13.80;96.20;;;;;;4960668;28;95467;-73
2022/05/30 06:16:51;;;;;;;5.88;2.08;;;14.00;95.60;;;;;;4944935;28;92507;-73
2022/05/30 06:19:19;;;;;;;4.28;2.05;;;14.20;95.20;;;;;;4977287;28;91792;-73
2022/05/30 06:21:47;;;;;;;2.90;1.98;;;14.40;95.00;;;;;;4960710;28;95335;-73
2022/05/30 06:24:16;;;;;;;3.67;3.47;;;14.50;94.80;;;;;;4944794;28;95656;-73
2022/05/30 06:26:44;;;;;;;7.00;2.13;;;14.50;94.60;;;;;;4977478;28;95162;-73
2022/05/30 06:29:38;;;;;;;5.00;2.20;;;14.50;94.50;;;;;;4939493;28;92540;-73
2022/05/30 06:32:07;;;;;;;5.38;3.17;;;14.40;94.70;;;;;;4960608;28;95127;-73
2022/05/30 06:34:53;;;;;;;2.72;2.10;;;14.40;94.70;;;;;;4960503;28;95242;-73
2022/05/30 06:37:20;;;;;;;4.65;2.55;;;14.40;94.60;;;;;;4944214;28;92629;-73
2022/05/30 06:39:47;;;;;;;6.93;2.67;;;14.50;94.80;;;;;;4960463;28;92536;-73
2022/05/30 06:42:26;;;;;;;2.80;2.30;;;14.70;94.70;;;;;;4960004;28;96067;-73
2022/05/30 06:45:12;;;;;;;4.03;2.92;;;15.00;94.30;;;;;;4963030;28;92454;-73
2022/05/30 06:47:58;;;;;;;4.68;2.92;;;15.30;93.80;;;;;;4963310;28;92523;-73
2022/05/30 06:50:44;;;;;;;2.17;1.60;;;15.60;93.40;;;;;;4976084;28;92471;-73
2022/05/30 06:53:12;;;;;;;3.05;1.52;;;15.90;93.00;;;;;;4942286;28;98039;-73
2022/05/30 06:55:39;;;;;;;9.60;4.53;;;16.10;92.40;;;;;;4959687;28;97642;-73
2022/05/30 06:58:12;;;;;;;3.03;1.77;;;16.30;91.70;;;;;;4960112;28;92487;-73
2022/05/30 07:00:44;;;;;;;3.47;1.13;;;16.50;91.00;;;;;;4960129;28;92985;-73
2022/05/30 07:03:30;;;;;;;2.17;1.00;;;16.70;90.40;;;;;;4976120;28;92716;-73
2022/05/30 07:06:19;;;;;;;1.75;1.15;;;17.00;90.10;;;;;;4962695;28;92550;-73
2022/05/30 07:09:09;;;;;;;2.55;1.45;;;17.20;89.10;;;;;;4966374;28;92406;-73
2022/05/30 07:11:54;;;;;;;3.40;1.42;;;17.30;88.30;;;;;;4962256;28;91820;-73
2022/05/30 07:14:23;;;;;;;1.80;1.00;;;17.40;87.40;;;;;;4959935;28;95104;-73
2022/05/30 07:16:50;;;;;;;3.30;1.67;;;17.60;85.80;;;;;;4959977;28;95572;-73
2022/05/30 07:19:17;;;;;;;2.00;1.25;;;17.80;85.50;;;;;;4958725;28;95010;-73
2022/05/30 07:21:49;;;;;;;1.30;1.10;;;17.90;85.60;;;;;;4960011;28;92562;-73
2022/05/30 07:24:39;;;;;;;1.65;0.65;;;18.00;84.50;;;;;;4939318;28;93225;-73
2022/05/30 07:27:24;;;;;;;2.30;0.70;;;18.20;82.30;;;;;;4962417;28;92457;-73
2022/05/30 07:30:10;;;;;;;2.78;2.35;;;18.30;81.20;;;;;;4975176;28;92375;-73
2022/05/30 07:33:09;;;;;;;2.75;0.80;;;18.40;81.00;;;;;;4932939;28;92513;-73
2022/05/30 07:35:55;;;;;;;2.30;1.30;;;18.50;81.40;;;;;;4962104;28;92574;-73
2022/05/30 07:38:42;;;;;;;3.15;2.53;;;18.60;80.90;;;;;;4926891;28;92648;-73
2022/05/30 07:41:41;;;;;;;3.15;1.20;;;18.60;80.20;;;;;;4964159;28;93332;-73
2022/05/30 07:44:37;;;;;;;1.95;0.98;;;18.60;79.00;;;;;;4888667;28;92556;-73
2022/05/30 07:47:22;;;;;;;1.35;1.25;;;18.70;79.00;;;;;;4974232;28;95123;-73
2022/05/30 07:50:02;;;;;;;1.98;0.80;;;19.10;78.50;;;;;;4944803;28;97617;-73
2022/05/30 07:52:44;;;;;;;1.75;0.50;;;19.30;76.70;;;;;;4959041;28;92652;-73
2022/05/30 07:55:18;;;;;;;2.05;1.25;;;19.40;73.10;;;;;;4944294;28;92442;-73
2022/05/30 07:57:52;;;;;;;1.40;1.30;;;19.20;72.40;;;;;;4942347;28;95905;-73
2022/05/30 08:00:29;;;;;;;2.15;0.90;;;19.20;73.10;;;;;;4960713;28;94071;-73
2022/05/30 08:03:05;;;;;;;2.55;2.35;;;19.40;73.80;;;;;;4958994;28;92534;-73
2022/05/30 08:05:33;;;;;;;1.13;0.50;;;19.50;73.50;;;;;;4958818;28;91781;-73
2022/05/30 08:08:19;;;;;;;2.47;1.33;;;19.60;73.10;;;;;;4960713;28;92739;-73
2022/05/30 08:10:53;;;;;;;2.85;2.35;;;19.50;73.70;;;;;;4959021;28;94228;-74
2022/05/30 08:13:22;;;;;;;3.35;1.10;;;19.40;72.90;;;;;;4958193;28;94877;-74
2022/05/30 08:15:53;;;;;;;1.60;1.60;;;19.50;72.80;;;;;;4943348;28;92962;-74
2022/05/30 08:18:24;;;;;;;0.80;0.50;;;19.40;72.00;;;;;;4958886;28;95152;-74
2022/05/30 08:20:55;;;;;;;2.25;2.15;;;19.10;70.90;;;;;;4943158;28;95294;-74
2022/05/30 08:23:23;;;;;;;1.38;1.17;;;18.80;72.70;;;;;;4958932;28;92412;-74
2022/05/30 08:25:53;;;;;;;1.52;1.02;;;18.50;74.10;;;;;;4958654;28;92618;-74
2022/05/30 08:28:24;;;;;;;1.67;1.58;;;18.20;76.80;;;;;;4974993;28;95864;-74
2022/05/30 08:30:51;;;;;;;3.28;1.38;;;17.90;78.40;;;;;;4958732;28;94607;-74
2022/05/30 08:33:37;;;;;;;1.25;1.15;;;17.50;81.60;;;;;;4975522;28;92444;-74
2022/05/30 08:36:23;;;;;;;1.90;0.90;;;17.00;81.70;;;;;;4961544;28;92551;-74
2022/05/30 08:41:46;;;;;;;1.60;1.55;;;16.90;83.60;;;;;;4940996;28;97689;-74
2022/05/30 08:41:47;;;;;;;1.20;0.50;;;16.80;84.70;;;;;;4961307;28;98417;-74
2022/05/30 08:44:33;;;;;;;1.45;1.23;;;17.10;85.30;;;;;;4962433;28;93133;-74
2022/05/30 08:47:52;;;;;;;1.87;0.80;;;17.40;84.40;;;;;;4962479;28;92455;-74
2022/05/30 08:50:41;;;;;;;2.53;1.85;;;17.80;83.60;;;;;;4974699;28;95457;-74
2022/05/30 08:53:40;;;;;;;1.55;1.45;;;18.10;82.20;;;;;;4975731;28;93007;-74
2022/05/30 08:56:22;;;;;;;3.45;1.48;;;18.40;82.40;;;;;;4939653;28;92589;-74
2022/05/30 08:59:13;;;;;;;3.03;1.42;;;18.50;80.80;;;;;;4976602;28;91615;-74
2022/05/30 09:01:48;;;;;;;2.75;1.00;;;18.50;80.40;;;;;;4958041;28;95435;-74
2022/05/30 09:04:47;;;;;;;2.30;1.88;;;18.50;79.60;;;;;;4974769;28;92483;-73
2022/05/30 09:07:20;;;;;;;1.63;1.63;;;18.70;79.50;;;;;;4957393;28;94885;-74
2022/05/30 09:10:02;;;;;;;1.38;1.13;;;18.40;78.60;;;;;;4957884;28;92688;-74
2022/05/30 09:13:06;;;;;;;2.00;1.95;;;18.30;81.20;;;;;;4958514;28;96215;-74
2022/05/30 09:16:20;;;;;;;0.65;0.65;;;18.10;82.00;;;;;;4912333;28;95366;-74
2022/05/30 09:18:53;;;;;;;0.90;0.90;;;18.20;83.60;;;;;;4948576;28;92941;-74
2022/05/30 09:21:29;;;;;;;1.98;1.83;;;18.30;83.70;;;;;;4959036;28;92543;-74
2022/05/30 09:23:56;;;;;;;2.42;2.28;;;18.30;83.80;;;;;;4957685;28;95765;-74
2022/05/30 09:26:26;;;;;;;1.35;1.35;;;18.40;83.80;;;;;;4958445;28;95302;-74
2022/05/30 09:29:10;;;;;;;1.17;1.05;;;18.40;83.50;;;;;;4957998;28;92634;-74
2022/05/30 09:32:04;;;;;;;1.20;0.90;;;18.50;84.20;;;;;;4974871;28;92440;-74
2022/05/30 09:34:51;;;;;;;1.23;1.15;;;18.50;83.70;;;;;;4959051;28;95064;-74
2022/05/30 09:37:40;;;;;;;1.42;1.33;;;18.60;83.90;;;;;;4973966;28;94824;-74
2022/05/30 09:40:08;;;;;;;1.52;1.23;;;18.60;82.40;;;;;;4974079;28;92442;-74
2022/05/30 09:42:49;;;;;;;1.20;0.93;;;18.70;82.90;;;;;;4957255;28;92896;-74
2022/05/30 09:45:28;;;;;;;0.70;0.70;;;18.90;81.70;;;;;;4957328;28;95883;-74
2022/05/30 09:48:05;;;;;;;0.70;0.70;;;19.00;81.90;;;;;;4972411;28;92743;-75
2022/05/30 09:50:57;;;;;;;;;;;19.20;81.20;;;;;;4960965;28;92454;-74
2022/05/30 09:57:54;;;;;;;0.75;0.60;;;19.80;75.60;;;;;;4952700;28;92648;-75
2022/05/30 10:00:40;;;;;;;1.25;0.70;;;20.30;76.90;;;;;;4936569;28;95742;-75
2022/05/30 10:03:12;;;;;;;1.42;0.93;;;20.60;75.10;;;;;;4948321;28;95508;-75
2022/05/30 10:05:43;;;;;;;1.92;0.75;;;20.90;74.80;;;;;;4935797;28;92867;-75
2022/05/30 10:08:26;;;;;;;1.67;0.88;;;21.30;74.50;;;;;;4939778;28;94379;-75
2022/05/30 10:11:01;;;;;;;2.03;1.92;;;21.60;73.90;;;;;;4949029;28;95355;-75
2022/05/30 10:13:41;;;;;;;1.00;0.80;;;21.60;72.10;;;;;;4956751;28;92538;-75
2022/05/30 10:16:38;;;;;;;2.03;1.70;;;21.70;72.00;;;;;;4956760;28;92543;-75
2022/05/30 10:19:10;;;;;;;1.20;1.10;;;21.50;70.50;;;;;;4956118;28;95891;-75
2022/05/30 10:29:59;;;;;;;1.07;0.63;;;19.70;78.40;;;;;;4935530;28;92806;-75
2022/05/30 10:33:16;;;;;;;2.25;1.23;;;18.90;82.00;;;;;;4925010;28;95467;-75
2022/05/30 10:36:35;;;;;;;1.33;1.23;;;18.60;83.40;;;;;;4969471;28;97762;-75
2022/05/30 10:39:18;;;;;;;0.60;0.60;;;18.30;84.00;;;;;;4917546;28;92626;-75
2022/05/30 10:42:01;;;;;;;2.10;1.33;;;18.20;83.80;;;;;;4971553;28;92527;-75
2022/05/30 10:44:33;;;;;;;2.55;2.45;;;18.20;84.40;;;;;;4978226;28;92456;-75
2022/05/30 10:47:15;;;;;;;2.55;2.45;;;18.20;85.40;;;;;;4960432;28;94930;-74
2022/05/30 10:49:58;;;;;;;1.67;1.00;;;18.30;85.50;;;;;;4960427;28;92722;-75
2022/05/30 10:52:32;;;;;;;1.13;1.02;;;18.50;86.10;;;;;;4978566;28;91721;-75
2022/05/30 10:55:11;;;;;;;1.40;1.30;;;18.60;86.20;;;;;;4959908;28;95289;-75
2022/05/30 10:57:56;;;;;;;0.77;0.70;;;18.80;85.50;;;;;;4958259;28;95819;-74
2022/05/30 11:00:34;;;;;;;0.95;0.95;;;19.10;85.10;;;;;;4958785;28;95038;-75
2022/05/30 11:03:17;;;;;;;0.70;0.70;;;19.30;84.50;;;;;;4959965;28;92581;-75
2022/05/30 11:05:51;;;;;;;1.10;1.10;;;19.40;83.50;;;;;;4943331;28;95014;-72
2022/05/30 11:08:31;;;;;;;0.85;0.80;;;19.30;83.60;;;;;;4943636;28;95124;-71
2022/05/30 11:11:14;;;;;;;1.98;1.70;;;19.40;82.70;;;;;;4959779;28;92572;-71
2022/05/30 11:13:48;;;;;;;3.63;0.77;;;19.40;81.70;;;;;;4959845;28;93005;-71
2022/05/30 11:16:33;;;;;;;0.93;0.93;;;19.30;82.50;;;;;;4977654;28;93258;-71
2022/05/30 11:20:00;;;;;;;2.05;0.75;;;19.50;81.80;;;;;;4977308;28;92377;-71
2022/05/30 11:22:42;;;;;;;0.85;0.70;;;19.70;80.70;;;;;;4905874;28;93077;-71
2022/05/30 11:25:15;;;;;;;1.35;0.98;;;19.80;79.90;;;;;;4960407;28;92401;-71
2022/05/30 11:27:59;;;;;;;0.93;0.93;;;20.00;80.00;;;;;;4955782;28;95709;-71
2022/05/30 11:30:44;;;;;;;0.93;0.93;;;20.20;78.70;;;;;;4939988;28;97879;-71
2022/05/30 11:33:23;;;;;;;0.40;0.40;;;20.40;77.70;;;;;;4958040;28;92412;-72
2022/05/30 11:36:20;;;;;;;0.80;0.52;;;20.50;75.70;;;;;;4939913;28;92830;-74
2022/05/30 11:39:22;;;;;;;0.80;0.80;;;20.80;73.20;;;;;;4956628;28;93254;-73
2022/05/30 11:42:21;;;;;;;0.60;0.60;;;20.90;72.50;;;;;;4957514;28;93061;-75
2022/05/30 11:45:02;;;;;;;0.70;0.40;;;20.80;70.90;;;;;;4940218;28;92599;-75
2022/05/30 11:47:51;;;;;;;0.40;0.40;;;21.10;72.20;;;;;;4957021;28;91740;-75
2022/05/30 11:50:23;;;;;;;0.85;0.85;;;21.30;70.40;;;;;;4940322;28;93220;-75
2022/05/30 11:53:26;;;;;;;1.52;0.70;;;21.40;69.80;;;;;;4954555;28;93102;-75
2022/05/30 11:56:25;;;;;;;1.30;1.20;;;21.50;68.00;;;;;;4938303;28;94897;-75
2022/05/30 11:59:09;;;;;;;0.70;0.70;;;21.50;69.00;;;;;;4955937;28;92573;-75
2022/05/30 12:01:42;;;;;;;2.35;1.27;;;21.50;69.40;;;;;;4923484;28;95941;-75
2022/05/30 12:04:48;;;;;;;1.10;0.63;;;21.60;68.90;;;;;;4954089;28;93382;-75
2022/05/30 12:07:42;;;;;;;1.02;1.02;;;21.70;69.40;;;;;;4914534;28;92615;-75
2022/05/30 12:10:15;;;;;;;2.35;0.73;;;21.70;67.80;;;;;;4919925;28;92452;-75
2022/05/30 12:13:01;;;;;;;1.80;1.70;;;21.50;67.70;;;;;;4919985;28;95722;-75
2022/05/30 12:15:34;;;;;;;1.67;1.58;;;21.40;68.30;;;;;;4936409;28;96782;-75
2022/05/30 12:24:39;;;;;;;2.60;1.10;;;21.10;70.40;;;;;;4918671;28;98334;-75
2022/05/30 12:27:35;;;;;;;1.35;0.60;;;20.80;69.90;;;;;;4936173;28;95403;-74
2022/05/30 12:30:33;;;;;;;0.60;0.60;;;20.40;70.60;;;;;;4936437;28;92488;-74
2022/05/30 12:33:00;;;;;;;1.40;0.60;;;20.00;71.10;;;;;;4937404;28;92521;-74
2022/05/30 12:35:30;;;;;;;0.80;0.80;;;19.70;70.70;;;;;;4919791;28;96035;-74
2022/05/30 12:37:58;;;;;;;1.27;1.27;;;19.60;72.00;;;;;;4937166;28;92391;-74
2022/05/30 12:40:25;;;;;;;0.65;0.50;;;19.60;72.70;;;;;;4937267;28;92436;-73
2022/05/30 12:43:16;;;;;;;1.48;1.48;;;19.70;72.90;;;;;;4937719;28;91780;-74
2022/05/30 12:45:48;;;;;;;0.80;0.80;;;19.80;70.00;;;;;;4937169;28;93467;-74
2022/05/30 12:48:35;;;;;;;1.15;1.15;;;19.50;71.60;;;;;;4937479;28;93955;-74
2022/05/30 12:51:23;;;;;;;0.95;0.90;;;19.40;72.00;;;;;;4935331;28;94773;-74
2022/05/30 12:53:59;;;;;;;0.60;0.60;;;19.30;71.90;;;;;;4919716;28;92531;-74
2022/05/30 12:56:38;;;;;;;0.55;0.40;;;19.30;72.10;;;;;;4936810;28;93555;-73
2022/05/30 12:59:11;;;;;;;0.82;0.82;;;19.30;72.10;;;;;;4936721;28;92913;-73
2022/05/30 13:01:42;;;;;;;1.17;1.08;;;19.20;72.90;;;;;;4937238;28;92449;-74
2022/05/30 13:04:15;;;;;;;1.83;0.85;;;19.10;72.30;;;;;;4935330;28;92449;-74
2022/05/30 13:06:52;;;;;;;1.95;1.92;;;19.00;72.80;;;;;;4919545;28;96345;-74
2022/05/30 13:09:26;;;;;;;0.65;0.50;;;18.80;72.50;;;;;;4937418;28;92153;-74
2022/05/30 13:12:11;;;;;;;0.95;0.93;;;18.90;72.70;;;;;;4919639;28;92509;-74
2022/05/30 13:14:57;;;;;;;0.70;0.70;;;19.20;72.50;;;;;;4937008;28;92407;-74
2022/05/30 13:17:46;;;;;;;1.58;1.50;;;19.30;71.80;;;;;;4935573;28;95654;-74
2022/05/30 13:20:18;;;;;;;1.33;0.60;;;19.60;71.10;;;;;;4936677;28;95432;-74
2022/05/30 13:22:58;;;;;;;1.55;1.17;;;19.60;70.10;;;;;;4937070;28;92705;-74
2022/05/30 13:25:32;;;;;;;1.85;1.60;;;19.50;71.20;;;;;;4937010;28;92484;-74
2022/05/30 13:28:13;;;;;;;0.90;0.80;;;19.60;71.50;;;;;;4918802;28;95648;-74
2022/05/30 13:30:40;;;;;;;2.35;0.80;;;19.60;71.30;;;;;;4935219;28;95688;-74
2022/05/30 13:33:26;;;;;;;1.52;1.42;;;19.50;71.00;;;;;;4935110;28;92577;-74
2022/05/30 13:36:03;;;;;;;1.20;1.20;;;19.70;70.90;;;;;;4937135;28;91770;-74
2022/05/30 13:38:38;;;;;;;0.90;0.65;;;19.50;69.90;;;;;;4936556;28;93316;-74
2022/05/30 13:41:25;;;;;;;1.73;1.63;;;19.50;70.50;;;;;;4936258;28;93320;-73
2022/05/30 13:44:09;;;;;;;1.00;0.57;;;19.30;69.70;;;;;;4935094;28;94742;-74
2022/05/30 13:46:45;;;;;;;1.10;1.05;;;19.30;70.30;;;;;;4936629;28;92522;-74
2022/05/30 13:49:12;;;;;;;2.17;1.98;;;19.40;70.40;;;;;;4918782;28;95975;-74
2022/05/30 13:51:45;;;;;;;1.77;1.67;;;19.50;70.70;;;;;;4934693;28;92935;-74
2022/05/30 13:54:13;;;;;;;1.60;1.50;;;19.80;70.70;;;;;;4936174;28;92487;-74
2022/05/30 13:56:45;;;;;;;2.10;2.00;;;20.00;70.40;;;;;;4936329;28;92559;-74
2022/05/30 13:59:24;;;;;;;1.65;0.73;;;20.20;69.50;;;;;;4936203;28;93319;-75
2022/05/30 14:02:14;;;;;;;3.15;2.78;;;20.60;69.60;;;;;;4919525;28;95931;-74
2022/05/30 14:04:49;;;;;;;0.85;0.55;;;20.80;68.10;;;;;;4938398;28;92485;-74
2022/05/30 14:07:24;;;;;;;1.23;0.93;;;20.70;67.70;;;;;;4938680;28;92445;-74